Time;durP1;ratioP1;P1;durP2;ratioP2;P2;SDS_P1;SDS_P2;PMS_P1;PMS_P2;Temp;Humidity;BMP_temperature;BMP_pressure;BME280_temperature;BME280_humidity;BME280_pressure;Samples;Min_cycle;Max_cycle;Signal;HPM_P1;HPM_P2
2022/05/30 00:00:43;;;;;;;4.03;1.90;;;8.90;99.90;;;;;;5023271;28;20321;-85
2022/05/30 00:03:09;;;;;;;1.07;0.60;;;8.80;99.90;;;;;;5023137;28;20269;-87
2022/05/30 00:05:35;;;;;;;0.50;0.50;;;8.80;99.90;;;;;;5024526;28;20726;-88
2022/05/30 00:08:02;;;;;;;2.73;1.60;;;8.70;99.90;;;;;;5023758;28;20671;-86
2022/05/30 00:10:29;;;;;;;0.33;0.33;;;8.70;99.90;;;;;;5024463;28;20229;-86
2022/05/30 00:12:55;;;;;;;2.03;0.77;;;8.60;99.90;;;;;;5022610;28;20657;-86
2022/05/30 00:15:22;;;;;;;4.30;0.70;;;8.60;99.90;;;;;;5022496;28;20560;-86
2022/05/30 00:17:48;;;;;;;1.73;0.70;;;8.50;99.90;;;;;;5022545;28;20244;-86
2022/05/30 00:20:14;;;;;;;0.63;0.57;;;8.50;99.90;;;;;;4991140;28;20658;-86
2022/05/30 00:22:40;;;;;;;3.60;0.70;;;8.50;99.90;;;;;;5024494;28;20190;-89
2022/05/30 00:25:06;;;;;;;1.13;0.50;;;8.50;99.90;;;;;;5021567;28;20210;-87
2022/05/30 00:27:32;;;;;;;1.73;0.80;;;8.50;99.90;;;;;;5026222;28;20222;-86
2022/05/30 00:29:58;;;;;;;2.53;0.57;;;8.50;99.90;;;;;;5026613;28;20693;-86
2022/05/30 00:32:25;;;;;;;4.17;0.97;;;8.50;99.90;;;;;;5025674;28;20714;-89
2022/05/30 00:34:51;;;;;;;0.40;0.40;;;8.50;99.90;;;;;;5026636;28;20208;-86
2022/05/30 00:37:17;;;;;;;0.40;0.40;;;8.50;99.90;;;;;;5026950;28;20198;-87
2022/05/30 00:39:42;;;;;;;0.50;0.37;;;8.60;99.90;;;;;;5009627;28;20296;-88
2022/05/30 00:42:18;;;;;;;0.60;0.60;;;8.70;99.90;;;;;;5010384;28;20276;-88
2022/05/30 00:44:45;;;;;;;6.60;0.97;;;8.70;99.90;;;;;;5027710;28;20785;-89
2022/05/30 00:47:11;;;;;;;3.77;1.30;;;8.70;99.90;;;;;;5010721;28;20234;-89
2022/05/30 00:49:39;;;;;;;2.93;1.50;;;8.70;99.90;;;;;;5026691;28;20214;-87
2022/05/30 00:52:08;;;;;;;1.23;0.97;;;8.70;99.90;;;;;;5041956;28;20219;-87
2022/05/30 00:54:40;;;;;;;0.77;0.77;;;8.70;99.90;;;;;;5042642;28;20248;-87
2022/05/30 00:57:28;;;;;;;1.83;1.00;;;8.70;99.90;;;;;;5026449;28;20210;-89
2022/05/30 01:00:16;;;;;;;3.93;1.10;;;8.60;99.90;;;;;;5025797;28;20210;-87
2022/05/30 01:02:43;;;;;;;1.17;0.87;;;8.60;99.90;;;;;;5026192;28;20748;-88
2022/05/30 01:07:58;;;;;;;0.83;0.83;;;8.70;99.90;;;;;;5027037;28;20277;-90
2022/05/30 01:10:23;;;;;;;0.50;0.50;;;8.70;99.90;;;;;;5026890;28;20232;-88
2022/05/30 01:12:53;;;;;;;0.83;0.83;;;8.80;99.90;;;;;;4993556;28;20242;-89
2022/05/30 01:15:21;;;;;;;6.23;1.30;;;8.80;99.90;;;;;;5027840;28;20218;-88
2022/05/30 01:17:55;;;;;;;1.20;0.80;;;8.90;99.90;;;;;;5027569;28;20229;-88
2022/05/30 01:20:35;;;;;;;0.80;0.80;;;8.90;99.90;;;;;;5025831;28;20218;-87
2022/05/30 01:23:33;;;;;;;2.77;0.87;;;8.90;99.90;;;;;;5026409;28;20182;-89
2022/05/30 01:26:13;;;;;;;0.80;0.70;;;9.00;99.90;;;;;;5008800;28;20195;-89
2022/05/30 01:28:43;;;;;;;0.93;0.80;;;9.00;99.90;;;;;;5026755;28;20724;-90
2022/05/30 01:31:09;;;;;;;0.63;0.63;;;9.00;99.90;;;;;;5025702;28;20230;-91
2022/05/30 01:33:35;;;;;;;0.80;0.80;;;9.00;99.90;;;;;;5001951;28;20222;-90
2022/05/30 01:36:01;;;;;;;2.73;1.07;;;9.10;99.90;;;;;;5008653;28;20227;-89
2022/05/30 01:38:28;;;;;;;2.10;1.07;;;9.10;99.90;;;;;;5009236;28;20237;-90
2022/05/30 01:40:55;;;;;;;2.20;0.90;;;9.20;99.90;;;;;;5009414;28;20290;-89
2022/05/30 01:43:20;;;;;;;4.73;1.00;;;9.20;99.90;;;;;;5010067;28;20201;-89
2022/05/30 01:45:46;;;;;;;0.50;0.50;;;9.20;99.90;;;;;;4992825;28;20222;-89
2022/05/30 01:48:12;;;;;;;0.80;0.80;;;9.30;99.90;;;;;;4992984;28;20218;-89
2022/05/30 01:50:37;;;;;;;5.50;0.80;;;9.30;99.90;;;;;;4993090;28;20234;-88
2022/05/30 01:53:03;;;;;;;0.87;0.87;;;9.30;99.90;;;;;;5025629;28;25544;-89
2022/05/30 01:55:29;;;;;;;0.60;0.60;;;9.30;99.90;;;;;;4993619;28;20248;-90
2022/05/30 01:57:55;;;;;;;1.13;0.90;;;9.30;99.90;;;;;;5009004;28;20226;-89
2022/05/30 02:00:20;;;;;;;4.97;0.80;;;9.30;99.90;;;;;;4992716;28;20218;-89
2022/05/30 02:02:47;;;;;;;4.57;0.60;;;9.20;99.90;;;;;;5008688;28;20214;-89
2022/05/30 02:05:13;;;;;;;1.20;1.13;;;9.30;99.90;;;;;;4992647;28;20317;-88
2022/05/30 02:07:38;;;;;;;1.80;1.10;;;9.30;99.90;;;;;;5009166;28;20278;-89
2022/05/30 02:10:05;;;;;;;0.83;0.83;;;9.30;99.90;;;;;;5008749;28;20687;-88
2022/05/30 02:12:31;;;;;;;2.67;1.60;;;9.30;99.90;;;;;;5007794;28;20265;-88
2022/05/30 02:14:56;;;;;;;1.80;0.63;;;9.20;99.90;;;;;;5008972;28;20253;-89
2022/05/30 02:17:22;;;;;;;1.33;0.80;;;9.20;99.90;;;;;;4992321;28;20746;-86
2022/05/30 02:19:48;;;;;;;0.57;0.57;;;9.30;99.90;;;;;;5008411;28;20183;-89
2022/05/30 02:22:17;;;;;;;0.70;0.60;;;9.30;99.90;;;;;;5008682;28;20202;-87
2022/05/30 02:24:42;;;;;;;0.50;0.40;;;9.30;99.90;;;;;;5025141;28;20218;-88
2022/05/30 02:27:11;;;;;;;1.67;0.97;;;9.20;99.90;;;;;;5008155;28;20731;-86
2022/05/30 02:29:38;;;;;;;0.57;0.57;;;9.20;99.90;;;;;;5041442;28;20716;-89
2022/05/30 02:32:04;;;;;;;0.40;0.40;;;9.20;99.90;;;;;;5023915;28;20246;-86
2022/05/30 02:37:15;;;;;;;0.50;0.40;;;9.20;99.90;;;;;;5011192;28;20297;-86
2022/05/30 02:39:41;;;;;;;0.30;0.30;;;9.30;99.90;;;;;;5008127;28;20403;-85
2022/05/30 02:42:07;;;;;;;0.43;0.43;;;9.30;99.90;;;;;;5040464;28;20226;-85
2022/05/30 02:44:34;;;;;;;0.30;0.27;;;9.30;99.90;;;;;;5024267;28;20506;-86
2022/05/30 02:47:00;;;;;;;1.27;0.60;;;9.30;99.90;;;;;;5024248;28;20209;-85
2022/05/30 02:49:27;;;;;;;0.50;0.50;;;9.30;99.90;;;;;;5008202;28;20676;-85
2022/05/30 02:51:54;;;;;;;3.60;0.83;;;9.30;99.90;;;;;;5007291;28;20236;-84
2022/05/30 02:54:21;;;;;;;1.27;1.07;;;9.40;99.90;;;;;;5024192;28;20222;-86
2022/05/30 02:56:55;;;;;;;0.47;0.47;;;9.30;99.90;;;;;;4991823;28;20297;-86
2022/05/30 02:59:21;;;;;;;8.80;0.97;;;9.30;99.90;;;;;;5025596;28;20276;-84
2022/05/30 03:01:47;;;;;;;0.60;0.40;;;9.30;99.90;;;;;;4991484;28;20190;-84
2022/05/30 03:04:13;;;;;;;0.30;0.30;;;9.40;99.90;;;;;;5024591;28;20800;-88
2022/05/30 03:06:39;;;;;;;7.63;0.53;;;9.30;99.90;;;;;;4991118;28;20233;-86
2022/05/30 03:09:06;;;;;;;0.30;0.30;;;9.30;99.90;;;;;;4991076;28;20583;-86
2022/05/30 03:11:33;;;;;;;0.40;0.40;;;9.30;99.90;;;;;;5006952;28;20234;-85
2022/05/30 03:13:59;;;;;;;0.20;0.20;;;9.30;99.90;;;;;;5024964;28;20209;-89
2022/05/30 03:16:25;;;;;;;0.40;0.40;;;9.30;99.90;;;;;;5023900;28;20191;-83
2022/05/30 03:18:51;;;;;;;0.40;0.40;;;9.30;99.90;;;;;;5023219;28;20225;-85
2022/05/30 03:21:17;;;;;;;0.57;0.57;;;9.30;99.90;;;;;;5024788;28;20226;-86
2022/05/30 03:23:43;;;;;;;0.30;0.30;;;9.30;99.90;;;;;;5023223;28;20738;-85
2022/05/30 03:26:10;;;;;;;0.43;0.43;;;9.30;99.90;;;;;;5023151;28;20245;-83
2022/05/30 03:28:38;;;;;;;0.20;0.20;;;9.30;99.90;;;;;;5023972;28;20282;-84
2022/05/30 03:31:07;;;;;;;0.23;0.23;;;9.20;99.90;;;;;;5007179;28;20222;-85
2022/05/30 03:33:37;;;;;;;0.50;0.50;;;9.30;99.90;;;;;;5024671;28;20694;-88
2022/05/30 03:36:11;;;;;;;1.57;1.53;;;9.30;99.90;;;;;;5024592;28;20928;-86
2022/05/30 03:38:36;;;;;;;5.23;0.40;;;9.30;99.90;;;;;;5023574;28;20215;-85
2022/05/30 03:41:02;;;;;;;0.80;0.80;;;9.30;99.90;;;;;;5006582;28;20190;-84
2022/05/30 03:43:28;;;;;;;0.57;0.57;;;9.30;99.90;;;;;;4997159;28;20198;-89
2022/05/30 03:45:53;;;;;;;0.40;0.40;;;9.40;99.90;;;;;;5007341;28;20262;-85
2022/05/30 03:48:21;;;;;;;0.40;0.40;;;9.40;99.90;;;;;;5023342;28;20222;-85
2022/05/30 03:50:48;;;;;;;0.50;0.50;;;9.50;99.90;;;;;;5023338;28;20233;-84
2022/05/30 03:53:15;;;;;;;0.73;0.63;;;9.50;99.90;;;;;;5023739;28;20223;-84
2022/05/30 03:55:43;;;;;;;1.03;0.60;;;9.50;99.90;;;;;;5023841;28;20175;-86
2022/05/30 03:58:10;;;;;;;0.20;0.20;;;9.50;99.90;;;;;;5012710;28;20218;-83
2022/05/30 04:00:38;;;;;;;0.40;0.40;;;9.60;99.90;;;;;;4998142;28;20375;-88
2022/05/30 04:03:04;;;;;;;0.30;0.30;;;9.70;99.90;;;;;;4987914;28;20700;-84
2022/05/30 04:05:30;;;;;;;0.50;0.50;;;9.80;99.90;;;;;;5003491;28;20249;-85
2022/05/30 04:07:57;;;;;;;2.00;0.90;;;9.90;99.90;;;;;;4986368;28;20183;-84
2022/05/30 04:10:23;;;;;;;0.80;0.60;;;10.00;99.90;;;;;;4987288;28;20602;-85
2022/05/30 04:12:49;;;;;;;0.30;0.30;;;10.00;99.90;;;;;;5000346;28;20266;-85
2022/05/30 04:15:19;;;;;;;0.30;0.30;;;10.10;99.90;;;;;;4998944;28;20229;-90
2022/05/30 04:17:45;;;;;;;0.37;0.37;;;10.20;99.90;;;;;;5024142;28;20249;-85
2022/05/30 04:20:12;;;;;;;1.13;0.77;;;10.30;99.90;;;;;;5024242;28;20721;-85
2022/05/30 04:22:37;;;;;;;0.37;0.37;;;10.40;99.90;;;;;;5024027;28;20193;-85
2022/05/30 04:25:04;;;;;;;0.60;0.50;;;10.40;99.90;;;;;;4989618;28;20218;-86
2022/05/30 04:27:29;;;;;;;0.53;0.53;;;10.40;99.90;;;;;;5005945;28;20302;-85
2022/05/30 04:29:55;;;;;;;1.17;1.07;;;10.50;99.90;;;;;;5006056;28;20722;-86
2022/05/30 04:32:22;;;;;;;0.50;0.50;;;10.50;99.90;;;;;;4988581;28;20238;-83
2022/05/30 04:34:48;;;;;;;0.40;0.40;;;10.60;99.90;;;;;;5022769;28;20545;-85
2022/05/30 04:37:14;;;;;;;0.43;0.43;;;10.50;99.90;;;;;;5005390;28;20202;-83
2022/05/30 04:39:40;;;;;;;0.53;0.53;;;10.60;99.90;;;;;;5022376;28;20226;-84
2022/05/30 04:42:06;;;;;;;0.87;0.87;;;10.70;99.90;;;;;;4989436;28;20742;-84
2022/05/30 04:44:32;;;;;;;4.27;1.17;;;10.70;99.90;;;;;;5006163;28;20242;-83
2022/05/30 04:46:59;;;;;;;0.70;0.60;;;10.80;99.90;;;;;;5038801;28;20282;-84
2022/05/30 04:49:26;;;;;;;0.50;0.50;;;10.90;99.90;;;;;;5007853;28;20210;-83
2022/05/30 04:51:52;;;;;;;1.70;0.50;;;11.00;99.90;;;;;;5037701;28;20246;-85
2022/05/30 04:54:19;;;;;;;3.30;0.50;;;10.90;99.90;;;;;;5025621;28;20257;-83
2022/05/30 04:56:45;;;;;;;0.47;0.47;;;10.70;99.90;;;;;;5021931;28;20215;-82
2022/05/30 04:59:11;;;;;;;0.30;0.30;;;10.50;99.90;;;;;;5022275;28;20763;-83
2022/05/30 05:01:37;;;;;;;0.47;0.47;;;10.40;99.90;;;;;;4989665;28;20563;-84
2022/05/30 05:04:08;;;;;;;2.47;0.53;;;10.30;99.90;;;;;;5005115;28;20222;-82
2022/05/30 05:06:35;;;;;;;0.40;0.40;;;10.30;99.90;;;;;;5023240;28;20218;-83
2022/05/30 05:09:01;;;;;;;0.50;0.50;;;10.30;99.90;;;;;;5022049;28;20218;-83
2022/05/30 05:11:30;;;;;;;0.40;0.40;;;10.30;99.90;;;;;;5021979;28;20238;-84
2022/05/30 05:13:56;;;;;;;0.53;0.53;;;10.20;99.90;;;;;;5026143;28;20615;-84
2022/05/30 05:16:25;;;;;;;0.50;0.43;;;10.10;99.90;;;;;;5026981;28;20306;-84
2022/05/30 05:18:52;;;;;;;0.40;0.40;;;10.20;99.90;;;;;;5026604;28;20482;-84
2022/05/30 05:21:22;;;;;;;7.63;0.80;;;10.20;99.90;;;;;;5025825;28;20246;-84
2022/05/30 05:23:48;;;;;;;4.53;0.70;;;10.40;99.90;;;;;;5041927;28;20218;-83
2022/05/30 05:26:15;;;;;;;19.27;0.70;;;11.20;99.90;;;;;;5025051;28;20207;-83
2022/05/30 05:28:41;;;;;;;0.57;0.53;;;11.40;99.90;;;;;;5026703;28;20198;-84
2022/05/30 05:31:08;;;;;;;0.57;0.50;;;11.30;99.90;;;;;;5024561;28;20222;-84
2022/05/30 05:33:35;;;;;;;0.23;0.23;;;11.50;99.90;;;;;;5025963;28;20732;-84
2022/05/30 05:36:01;;;;;;;0.80;0.80;;;11.70;99.90;;;;;;5024957;28;20709;-83
2022/05/30 05:38:27;;;;;;;0.53;0.50;;;11.70;99.90;;;;;;5026293;28;20268;-83
2022/05/30 05:40:53;;;;;;;0.90;0.60;;;11.80;99.90;;;;;;5025971;28;20199;-83
2022/05/30 05:43:19;;;;;;;2.37;0.70;;;11.60;99.90;;;;;;5008555;28;20756;-83
2022/05/30 05:45:46;;;;;;;0.67;0.67;;;11.60;99.90;;;;;;5024665;28;20239;-83
2022/05/30 05:48:13;;;;;;;0.87;0.70;;;11.70;99.90;;;;;;5024303;28;20207;-85
2022/05/30 05:50:41;;;;;;;1.60;0.57;;;11.90;99.90;;;;;;5024671;28;20582;-84
2022/05/30 05:53:08;;;;;;;1.73;0.60;;;12.10;99.90;;;;;;5040127;28;20228;-83
2022/05/30 05:55:34;;;;;;;0.40;0.40;;;13.60;99.90;;;;;;5025643;28;20340;-84
2022/05/30 05:58:00;;;;;;;2.67;1.47;;;15.80;99.90;;;;;;5008116;28;20226;-86
2022/05/30 06:00:26;;;;;;;0.90;0.77;;;16.40;99.90;;;;;;4991197;28;20419;-84
2022/05/30 06:02:52;;;;;;;1.37;1.10;;;19.80;99.90;;;;;;5024371;28;20217;-84
2022/05/30 06:05:17;;;;;;;1.53;0.67;;;23.50;99.90;;;;;;5025673;28;20214;-86
2022/05/30 06:07:44;;;;;;;0.40;0.40;;;24.20;99.90;;;;;;5008660;28;20227;-83
2022/05/30 06:10:14;;;;;;;0.50;0.50;;;26.20;99.90;;;;;;5012840;28;20242;-86
2022/05/30 06:12:45;;;;;;;0.30;0.30;;;24.20;99.90;;;;;;5038395;28;20231;-87
2022/05/30 06:15:17;;;;;;;0.83;0.50;;;20.20;99.90;;;;;;5024546;28;20218;-85
2022/05/30 06:17:45;;;;;;;0.77;0.77;;;17.70;99.90;;;;;;5024486;28;20687;-87
2022/05/30 06:20:13;;;;;;;2.10;0.70;;;15.80;99.90;;;;;;5023930;28;20214;-84
2022/05/30 06:22:39;;;;;;;0.57;0.50;;;16.10;99.90;;;;;;5025430;28;20643;-87
2022/05/30 06:25:06;;;;;;;1.60;0.73;;;17.70;99.90;;;;;;5024772;28;20450;-85
2022/05/30 06:27:32;;;;;;;0.40;0.40;;;18.20;99.90;;;;;;5026142;28;20229;-87
2022/05/30 06:29:58;;;;;;;0.97;0.53;;;17.20;99.90;;;;;;5024204;28;20679;-87
2022/05/30 06:32:24;;;;;;;0.40;0.40;;;15.50;99.90;;;;;;5024326;28;20238;-87
2022/05/30 06:34:51;;;;;;;0.40;0.40;;;14.10;99.90;;;;;;5008113;28;20222;-89
2022/05/30 06:37:17;;;;;;;0.30;0.30;;;13.30;99.90;;;;;;5024862;28;20183;-89
2022/05/30 06:39:42;;;;;;;1.07;0.50;;;12.50;99.90;;;;;;5024620;28;20222;-87
2022/05/30 06:42:10;;;;;;;0.30;0.30;;;12.50;99.90;;;;;;5007631;28;20238;-86
2022/05/30 06:44:36;;;;;;;2.17;0.43;;;12.30;99.90;;;;;;5024634;28;20214;-87
2022/05/30 06:47:03;;;;;;;0.30;0.30;;;12.30;99.90;;;;;;5024820;28;20226;-87
2022/05/30 06:49:29;;;;;;;1.03;0.70;;;12.20;99.90;;;;;;5025533;28;20651;-88
2022/05/30 06:51:55;;;;;;;0.50;0.50;;;12.30;99.90;;;;;;5007967;28;20241;-87
2022/05/30 06:54:20;;;;;;;0.43;0.43;;;12.50;99.90;;;;;;5008701;28;20422;-89
2022/05/30 06:59:31;;;;;;;0.80;0.60;;;12.70;99.90;;;;;;5024527;28;21107;-88
2022/05/30 07:01:59;;;;;;;1.53;0.60;;;12.90;99.90;;;;;;5022857;28;20197;-89
2022/05/30 07:04:25;;;;;;;0.97;0.60;;;12.90;99.90;;;;;;5005197;28;20199;-88
2022/05/30 07:06:51;;;;;;;1.27;0.93;;;13.10;99.90;;;;;;4988002;28;20281;-87
2022/05/30 07:09:17;;;;;;;0.50;0.50;;;13.10;99.90;;;;;;5003579;28;20305;-85
2022/05/30 07:11:46;;;;;;;0.33;0.33;;;13.00;99.90;;;;;;5003424;28;20227;-85
2022/05/30 07:14:12;;;;;;;0.40;0.40;;;13.10;99.90;;;;;;5003613;28;20219;-86
2022/05/30 07:16:39;;;;;;;0.73;0.47;;;13.20;99.90;;;;;;5006291;28;20257;-84
2022/05/30 07:19:06;;;;;;;0.20;0.20;;;13.10;99.90;;;;;;5003032;28;20215;-84
2022/05/30 07:21:32;;;;;;;0.33;0.33;;;13.20;99.90;;;;;;5006028;28;20237;-87
2022/05/30 07:23:58;;;;;;;0.60;0.60;;;13.10;99.90;;;;;;5004329;28;20548;-86
2022/05/30 07:26:24;;;;;;;1.23;0.63;;;13.10;99.90;;;;;;5008939;28;20301;-85
2022/05/30 07:28:53;;;;;;;0.47;0.47;;;13.10;99.90;;;;;;5007688;28;20198;-87
2022/05/30 07:31:21;;;;;;;0.57;0.47;;;13.40;99.90;;;;;;5025103;28;20239;-88
2022/05/30 07:33:48;;;;;;;0.30;0.30;;;13.60;99.90;;;;;;5023137;28;20221;-86
2022/05/30 07:36:21;;;;;;;0.90;0.57;;;13.60;99.90;;;;;;4999741;28;20237;-87
2022/05/30 07:38:47;;;;;;;0.80;0.70;;;14.40;99.90;;;;;;5023866;28;20280;-88
2022/05/30 07:41:14;;;;;;;2.93;0.70;;;16.20;99.90;;;;;;5024177;28;20219;-87
2022/05/30 07:43:40;;;;;;;0.53;0.53;;;18.00;99.90;;;;;;5023793;28;20234;-86
2022/05/30 07:46:11;;;;;;;1.10;0.40;;;20.90;99.90;;;;;;5007082;28;20249;-87
2022/05/30 07:48:38;;;;;;;0.30;0.30;;;20.90;99.90;;;;;;5023276;28;20581;-85
2022/05/30 07:51:05;;;;;;;0.60;0.60;;;18.80;99.90;;;;;;5039337;28;20234;-88
2022/05/30 07:53:30;;;;;;;5.60;0.50;;;17.40;99.90;;;;;;5023076;28;20211;-89
2022/05/30 07:55:57;;;;;;;0.63;0.63;;;17.70;99.90;;;;;;5023703;28;20648;-90
2022/05/30 07:58:24;;;;;;;1.90;0.53;;;19.50;99.90;;;;;;5024340;28;20187;-88
2022/05/30 08:00:52;;;;;;;4.40;1.03;;;21.10;99.90;;;;;;5023278;28;20230;-88
2022/05/30 08:03:18;;;;;;;2.13;0.73;;;19.80;99.90;;;;;;5007035;28;20280;-88
2022/05/30 08:05:45;;;;;;;1.87;0.50;;;18.20;99.90;;;;;;5006081;28;20214;-88
2022/05/30 08:08:11;;;;;;;0.87;0.60;;;18.70;99.90;;;;;;5022881;28;20222;-88
2022/05/30 08:10:37;;;;;;;0.47;0.47;;;20.60;99.90;;;;;;5023345;28;20669;-87
2022/05/30 08:13:04;;;;;;;0.50;0.50;;;19.80;99.90;;;;;;5022885;28;20230;-89
2022/05/30 08:15:30;;;;;;;0.73;0.50;;;20.60;99.90;;;;;;5023196;28;20232;-89
2022/05/30 08:18:00;;;;;;;1.60;0.50;;;18.90;99.90;;;;;;5006739;28;20214;-88
2022/05/30 08:20:29;;;;;;;0.40;0.40;;;17.20;99.90;;;;;;5022748;28;20215;-87
2022/05/30 08:22:54;;;;;;;1.13;0.70;;;15.90;99.90;;;;;;5024261;28;20246;-86
2022/05/30 08:25:21;;;;;;;0.57;0.57;;;16.80;99.90;;;;;;5007059;28;20560;-88
2022/05/30 08:27:48;;;;;;;0.40;0.40;;;16.90;99.90;;;;;;5023105;28;20260;-87
2022/05/30 08:30:18;;;;;;;0.70;0.70;;;16.60;99.90;;;;;;5023875;28;20667;-86
2022/05/30 08:32:45;;;;;;;0.87;0.50;;;16.70;99.90;;;;;;5038588;28;20234;-87
2022/05/30 08:35:16;;;;;;;0.30;0.30;;;17.50;99.90;;;;;;5022341;28;20246;-87
2022/05/30 08:37:43;;;;;;;3.10;0.77;;;16.00;99.90;;;;;;5039631;28;20278;-87
2022/05/30 08:43:14;;;;;;;3.83;0.50;;;14.70;99.90;;;;;;5024328;28;20237;-86
2022/05/30 08:45:41;;;;;;;0.27;0.27;;;14.50;99.90;;;;;;5022086;28;20303;-87
2022/05/30 08:48:13;;;;;;;0.53;0.53;;;14.30;99.90;;;;;;5024350;28;20635;-86
2022/05/30 08:51:02;;;;;;;0.30;0.30;;;14.70;99.90;;;;;;5025005;28;20242;-87
2022/05/30 08:53:56;;;;;;;0.37;0.33;;;15.30;99.90;;;;;;5027216;28;20719;-86
2022/05/30 08:56:24;;;;;;;0.40;0.40;;;15.40;99.90;;;;;;5026563;28;20213;-85
2022/05/30 08:59:15;;;;;;;2.20;0.57;;;17.00;99.90;;;;;;5025601;28;20519;-84
2022/05/30 09:01:46;;;;;;;0.43;0.43;;;18.60;99.90;;;;;;5026323;28;20194;-86
2022/05/30 09:04:34;;;;;;;0.50;0.50;;;18.40;99.90;;;;;;5026382;28;20230;-86
2022/05/30 09:07:05;;;;;;;0.70;0.70;;;19.20;99.90;;;;;;5027063;28;20229;-86
2022/05/30 09:09:40;;;;;;;1.07;0.70;;;20.20;99.90;;;;;;5024911;28;21197;-85
2022/05/30 09:12:10;;;;;;;2.20;0.50;;;18.30;99.90;;;;;;5024301;28;20822;-86
2022/05/30 09:14:51;;;;;;;1.90;0.60;;;16.80;99.90;;;;;;5024682;28;20271;-85
2022/05/30 09:17:41;;;;;;;1.17;0.60;;;16.10;99.90;;;;;;5024721;28;20734;-84
2022/05/30 09:20:12;;;;;;;2.87;0.90;;;15.70;99.90;;;;;;5040583;28;20244;-85
2022/05/30 09:22:38;;;;;;;0.50;0.50;;;15.50;99.90;;;;;;5025340;28;20190;-84
2022/05/30 09:27:57;;;;;;;1.17;0.77;;;18.00;99.90;;;;;;5024873;28;20314;-87
2022/05/30 09:30:30;;;;;;;1.33;0.50;;;18.80;99.90;;;;;;4991716;28;20305;-86
2022/05/30 09:33:16;;;;;;;1.27;0.60;;;17.40;99.90;;;;;;5025752;28;20383;-89
2022/05/30 09:35:43;;;;;;;0.70;0.43;;;19.40;99.90;;;;;;5041323;28;20232;-88
2022/05/30 09:38:22;;;;;;;3.30;1.33;;;19.50;99.90;;;;;;5024456;28;20214;-91
2022/05/30 09:40:52;;;;;;;0.67;0.47;;;17.80;99.90;;;;;;5041116;28;20195;-85
2022/05/30 09:43:24;;;;;;;2.87;0.97;;;16.10;99.90;;;;;;5025673;28;20561;-87
2022/05/30 09:45:50;;;;;;;2.03;0.93;;;15.00;99.90;;;;;;5025137;28;20338;-86
2022/05/30 09:48:20;;;;;;;0.80;0.80;;;14.60;99.90;;;;;;5013162;28;20299;-88
2022/05/30 09:50:50;;;;;;;1.43;0.57;;;14.30;99.90;;;;;;5010284;28;20214;-88
2022/05/30 09:53:47;;;;;;;1.30;0.60;;;16.00;99.90;;;;;;5024602;28;20215;-89
2022/05/30 09:56:17;;;;;;;2.63;0.40;;;17.80;99.90;;;;;;5025102;28;20214;-86
2022/05/30 09:58:59;;;;;;;0.70;0.63;;;17.80;99.90;;;;;;5025126;28;20284;-85
2022/05/30 10:01:27;;;;;;;0.63;0.63;;;17.10;99.90;;;;;;5013796;28;20223;-86
2022/05/30 10:03:58;;;;;;;2.73;0.60;;;16.90;99.90;;;;;;5023027;28;20690;-88
2022/05/30 10:06:27;;;;;;;0.50;0.50;;;16.40;99.90;;;;;;5025028;28;20297;-86
2022/05/30 10:09:28;;;;;;;0.60;0.50;;;17.30;99.90;;;;;;5024823;28;20223;-87
2022/05/30 10:11:56;;;;;;;1.03;0.40;;;17.20;99.90;;;;;;5024640;28;20280;-87
2022/05/30 10:14:25;;;;;;;1.73;0.40;;;15.70;99.90;;;;;;5040905;28;20237;-89
2022/05/30 10:16:56;;;;;;;0.63;0.47;;;15.90;99.90;;;;;;5024455;28;20193;-87
2022/05/30 10:19:32;;;;;;;5.20;0.77;;;16.80;99.90;;;;;;5025021;28;20210;-87
2022/05/30 10:28:28;;;;;;;0.40;0.40;;;16.30;99.90;;;;;;5025579;28;20299;-88
2022/05/30 10:31:12;;;;;;;1.17;0.80;;;15.60;99.90;;;;;;5023514;28;20733;-88
2022/05/30 10:33:58;;;;;;;0.50;0.50;;;15.50;99.90;;;;;;5024013;28;20643;-87
2022/05/30 10:36:33;;;;;;;0.40;0.40;;;14.70;99.90;;;;;;5024134;28;20222;-87
2022/05/30 10:39:11;;;;;;;1.27;1.00;;;14.80;99.90;;;;;;5023739;28;20253;-86
2022/05/30 10:41:44;;;;;;;3.03;0.83;;;15.10;99.90;;;;;;5023849;28;20221;-86
2022/05/30 10:44:21;;;;;;;2.57;0.50;;;15.10;99.90;;;;;;5023191;28;20210;-85
2022/05/30 10:46:59;;;;;;;0.40;0.40;;;14.80;99.90;;;;;;5024174;28;20281;-87
2022/05/30 10:49:31;;;;;;;0.43;0.40;;;14.70;99.90;;;;;;5023905;28;20186;-88
2022/05/30 10:52:17;;;;;;;1.53;1.20;;;15.00;99.90;;;;;;5023771;28;20688;-86
2022/05/30 10:54:51;;;;;;;0.40;0.40;;;15.10;99.90;;;;;;5024042;28;20671;-89
2022/05/30 10:57:29;;;;;;;0.40;0.40;;;15.20;99.90;;;;;;5024352;28;20213;-91
2022/05/30 11:00:12;;;;;;;0.50;0.50;;;15.10;99.90;;;;;;5023116;28;20316;-90
2022/05/30 11:02:53;;;;;;;0.20;0.20;;;15.20;99.90;;;;;;5024021;28;20508;-87
2022/05/30 11:05:44;;;;;;;0.40;0.40;;;15.00;99.90;;;;;;5023399;28;20678;-88
2022/05/30 11:08:26;;;;;;;0.30;0.30;;;15.40;99.90;;;;;;5023468;28;20255;-89
2022/05/30 11:10:56;;;;;;;0.50;0.50;;;15.30;99.90;;;;;;5039678;28;20193;-88
2022/05/30 11:13:53;;;;;;;0.47;0.47;;;15.20;99.90;;;;;;5025401;28;20185;-89
2022/05/30 11:16:40;;;;;;;0.30;0.30;;;15.10;99.90;;;;;;5025268;28;20222;-87
2022/05/30 11:19:33;;;;;;;0.43;0.40;;;14.80;99.90;;;;;;5025121;28;20237;-90
2022/05/30 11:22:38;;;;;;;0.50;0.50;;;15.40;99.90;;;;;;5023325;28;20222;-87
2022/05/30 11:25:07;;;;;;;0.40;0.40;;;15.70;99.90;;;;;;5022829;28;20220;-89
2022/05/30 11:27:39;;;;;;;1.00;0.60;;;15.50;99.90;;;;;;5022749;28;20273;-88
2022/05/30 11:30:11;;;;;;;0.40;0.40;;;15.90;99.90;;;;;;5024430;28;20245;-89
2022/05/30 11:32:55;;;;;;;0.77;0.50;;;15.90;99.90;;;;;;5022039;28;20242;-88
2022/05/30 11:35:35;;;;;;;1.13;0.50;;;16.50;99.90;;;;;;5021085;28;20778;-89
2022/05/30 11:38:21;;;;;;;0.40;0.40;;;16.20;99.90;;;;;;5023544;28;20319;-86
2022/05/30 11:41:06;;;;;;;0.87;0.40;;;16.00;99.90;;;;;;5023444;28;20178;-88
2022/05/30 11:43:59;;;;;;;0.40;0.40;;;16.30;99.90;;;;;;5022849;28;20186;-87
2022/05/30 11:46:25;;;;;;;1.67;1.00;;;15.80;99.90;;;;;;5022118;28;20396;-87
2022/05/30 11:49:30;;;;;;;0.40;0.40;;;16.10;99.90;;;;;;5023642;28;20214;-92
2022/05/30 11:52:25;;;;;;;0.70;0.57;;;15.70;99.90;;;;;;5023461;28;20567;-88
2022/05/30 11:55:15;;;;;;;0.40;0.40;;;15.80;99.90;;;;;;5022676;28;20276;-86
2022/05/30 11:57:55;;;;;;;0.93;0.63;;;15.80;99.90;;;;;;5023114;28;20225;-88
2022/05/30 12:00:35;;;;;;;0.30;0.30;;;16.20;99.90;;;;;;5024370;28;20245;-85
2022/05/30 12:03:22;;;;;;;0.70;0.60;;;16.30;99.90;;;;;;5023341;28;20226;-87
2022/05/30 12:06:25;;;;;;;0.50;0.50;;;16.30;99.90;;;;;;5023854;28;20221;-87
2022/05/30 12:09:18;;;;;;;1.33;0.53;;;16.00;99.90;;;;;;5022216;28;20253;-87
2022/05/30 12:12:03;;;;;;;0.50;0.50;;;15.90;99.90;;;;;;5023093;28;20254;-90
2022/05/30 12:14:58;;;;;;;0.93;0.50;;;15.60;99.90;;;;;;5022539;28;20226;-89
2022/05/30 12:17:38;;;;;;;0.50;0.50;;;15.60;99.90;;;;;;5021978;28;20246;-88
2022/05/30 12:25:56;;;;;;;0.30;0.30;;;15.10;99.90;;;;;;5027817;28;20654;-89
2022/05/30 12:28:28;;;;;;;0.50;0.50;;;15.00;99.90;;;;;;5011414;28;20190;-87
2022/05/30 12:31:08;;;;;;;0.40;0.40;;;14.90;99.90;;;;;;5043138;28;20261;-86
2022/05/30 12:33:33;;;;;;;1.50;0.77;;;14.80;99.90;;;;;;5026786;28;20232;-88
2022/05/30 12:36:08;;;;;;;0.43;0.43;;;14.70;99.90;;;;;;5027736;28;20317;-85
2022/05/30 12:39:01;;;;;;;0.50;0.50;;;14.60;99.90;;;;;;5028276;28;20226;-89
2022/05/30 12:41:36;;;;;;;0.40;0.40;;;14.50;99.90;;;;;;5026229;28;20698;-86
2022/05/30 12:44:03;;;;;;;0.40;0.40;;;14.30;99.90;;;;;;5028427;28;20191;-88
2022/05/30 12:46:47;;;;;;;0.93;0.50;;;14.20;99.90;;;;;;5026979;28;20202;-86
2022/05/30 12:49:29;;;;;;;5.00;0.50;;;14.00;99.90;;;;;;5027864;28;20294;-87
2022/05/30 12:51:59;;;;;;;0.73;0.73;;;14.20;99.90;;;;;;5026137;28;20245;-87
2022/05/30 12:54:36;;;;;;;0.40;0.40;;;14.40;99.90;;;;;;5027540;28;20226;-87
2022/05/30 12:57:07;;;;;;;1.67;0.53;;;14.30;99.90;;;;;;5027878;28;20214;-88
2022/05/30 12:59:53;;;;;;;0.40;0.40;;;14.60;99.90;;;;;;5027428;28;20242;-89
2022/05/30 13:03:01;;;;;;;0.43;0.43;;;14.60;99.90;;;;;;5026164;28;20222;-87
2022/05/30 13:05:42;;;;;;;2.20;0.93;;;14.80;99.90;;;;;;5026806;28;20268;-89
2022/05/30 13:08:46;;;;;;;0.40;0.40;;;15.00;99.90;;;;;;5026747;28;20772;-88
2022/05/30 13:11:27;;;;;;;0.50;0.50;;;14.90;99.90;;;;;;5026283;28;20232;-88
2022/05/30 13:13:55;;;;;;;0.40;0.40;;;14.20;99.90;;;;;;5025830;28;20643;-88
2022/05/30 13:16:41;;;;;;;0.30;0.30;;;14.20;99.90;;;;;;5026749;28;20175;-88
2022/05/30 13:19:12;;;;;;;0.67;0.40;;;14.00;99.90;;;;;;5025933;28;20675;-89
2022/05/30 13:21:40;;;;;;;0.40;0.40;;;14.20;99.90;;;;;;5025901;28;20679;-87
2022/05/30 13:24:33;;;;;;;0.37;0.37;;;14.40;99.90;;;;;;5025795;28;21050;-86
2022/05/30 13:27:00;;;;;;;0.60;0.60;;;14.20;99.90;;;;;;5019792;28;20218;-90
2022/05/30 13:29:35;;;;;;;1.43;0.30;;;14.30;99.90;;;;;;5027690;28;20208;-89
2022/05/30 13:32:04;;;;;;;0.30;0.30;;;14.40;99.90;;;;;;5025798;28;20300;-92
2022/05/30 13:34:32;;;;;;;2.10;0.63;;;14.20;99.90;;;;;;5026547;28;20222;-92
2022/05/30 13:37:00;;;;;;;0.30;0.30;;;14.10;99.90;;;;;;5025520;28;20710;-89